sensor_id;sensor_type;location;lat;lon;timestamp;pressure;altitude;pressure_sealevel;temperature
34125;BMP280;20110;53.120;5.786;2023-02-15T00:01:57;102958.50;;;4.96
34125;BMP280;20110;53.120;5.786;2023-02-15T00:04:25;102937.97;;;4.88
34125;BMP280;20110;53.120;5.786;2023-02-15T00:07:14;102970.00;;;5.19
34125;BMP280;20110;53.120;5.786;2023-02-15T00:09:40;102924.00;;;4.91
34125;BMP280;20110;53.120;5.786;2023-02-15T00:12:06;102907.38;;;4.78
34125;BMP280;20110;53.120;5.786;2023-02-15T00:14:32;102943.72;;;5.15
34125;BMP280;20110;53.120;5.786;2023-02-15T00:16:57;102994.31;;;5.84
34125;BMP280;20110;53.120;5.786;2023-02-15T00:19:25;102986.38;;;6.13
34125;BMP280;20110;53.120;5.786;2023-02-15T00:21:51;102992.13;;;5.95
34125;BMP280;20110;53.120;5.786;2023-02-15T00:24:18;102913.19;;;5.18
34125;BMP280;20110;53.120;5.786;2023-02-15T00:26:46;102981.59;;;5.38
34125;BMP280;20110;53.120;5.786;2023-02-15T00:29:14;102972.22;;;5.20
34125;BMP280;20110;53.120;5.786;2023-02-15T00:31:41;102835.06;;;4.17
34125;BMP280;20110;53.120;5.786;2023-02-15T00:34:13;102940.59;;;4.88
34125;BMP280;20110;53.120;5.786;2023-02-15T00:36:39;102884.25;;;4.53
34125;BMP280;20110;53.120;5.786;2023-02-15T00:39:06;102913.28;;;4.82
34125;BMP280;20110;53.120;5.786;2023-02-15T00:41:32;102919.66;;;4.84
34125;BMP280;20110;53.120;5.786;2023-02-15T00:43:58;102915.94;;;4.82
34125;BMP280;20110;53.120;5.786;2023-02-15T00:46:24;102901.38;;;4.77
34125;BMP280;20110;53.120;5.786;2023-02-15T00:48:50;102872.19;;;4.55
34125;BMP280;20110;53.120;5.786;2023-02-15T00:51:16;102917.31;;;4.86
34125;BMP280;20110;53.120;5.786;2023-02-15T00:53:43;102948.19;;;5.18
34125;BMP280;20110;53.120;5.786;2023-02-15T00:56:12;102903.72;;;5.04
34125;BMP280;20110;53.120;5.786;2023-02-15T00:58:38;102944.34;;;5.35
34125;BMP280;20110;53.120;5.786;2023-02-15T01:01:11;102801.03;;;4.26
34125;BMP280;20110;53.120;5.786;2023-02-15T01:03:38;102900.22;;;4.94
34125;BMP280;20110;53.120;5.786;2023-02-15T01:06:04;102803.34;;;4.24
34125;BMP280;20110;53.120;5.786;2023-02-15T01:08:31;102908.50;;;4.93
34125;BMP280;20110;53.120;5.786;2023-02-15T01:11:03;102904.66;;;4.97
34125;BMP280;20110;53.120;5.786;2023-02-15T01:13:29;102886.88;;;4.85
34125;BMP280;20110;53.120;5.786;2023-02-15T01:15:55;102894.56;;;4.96
34125;BMP280;20110;53.120;5.786;2023-02-15T01:18:22;102906.88;;;4.99
34125;BMP280;20110;53.120;5.786;2023-02-15T01:20:48;102903.50;;;4.98
34125;BMP280;20110;53.120;5.786;2023-02-15T01:23:15;102899.28;;;5.01
34125;BMP280;20110;53.120;5.786;2023-02-15T01:25:41;102917.31;;;5.19
34125;BMP280;20110;53.120;5.786;2023-02-15T01:28:07;102872.41;;;4.93
34125;BMP280;20110;53.120;5.786;2023-02-15T01:30:33;102906.38;;;5.20
34125;BMP280;20110;53.120;5.786;2023-02-15T01:32:59;102874.75;;;5.20
34125;BMP280;20110;53.120;5.786;2023-02-15T01:35:27;102882.19;;;5.38
34125;BMP280;20110;53.120;5.786;2023-02-15T01:37:57;102868.56;;;5.27
34125;BMP280;20110;53.120;5.786;2023-02-15T01:40:25;102892.75;;;5.38
34125;BMP280;20110;53.120;5.786;2023-02-15T01:42:53;102882.53;;;5.24
34125;BMP280;20110;53.120;5.786;2023-02-15T01:45:27;102904.63;;;5.30
34125;BMP280;20110;53.120;5.786;2023-02-15T01:48:03;102876.28;;;4.89
34125;BMP280;20110;53.120;5.786;2023-02-15T01:50:36;102897.34;;;4.89
34125;BMP280;20110;53.120;5.786;2023-02-15T01:53:15;102891.66;;;4.90
34125;BMP280;20110;53.120;5.786;2023-02-15T01:58:19;102858.25;;;4.87
34125;BMP280;20110;53.120;5.786;2023-02-15T02:00:46;102877.34;;;5.08
34125;BMP280;20110;53.120;5.786;2023-02-15T02:03:14;102852.56;;;4.89
34125;BMP280;20110;53.120;5.786;2023-02-15T02:05:41;102780.81;;;4.39
34125;BMP280;20110;53.120;5.786;2023-02-15T02:08:08;102823.72;;;4.69
34125;BMP280;20110;53.120;5.786;2023-02-15T02:10:37;102836.44;;;4.87
34125;BMP280;20110;53.120;5.786;2023-02-15T02:13:05;102864.63;;;5.19
34125;BMP280;20110;53.120;5.786;2023-02-15T02:15:56;102816.53;;;4.86
34125;BMP280;20110;53.120;5.786;2023-02-15T02:31:44;102835.72;;;4.21
34125;BMP280;20110;53.120;5.786;2023-02-15T02:34:29;102812.75;;;4.05
34125;BMP280;20110;53.120;5.786;2023-02-15T02:40:16;102839.75;;;4.26
34125;BMP280;20110;53.120;5.786;2023-02-15T02:43:33;102842.53;;;4.19
34125;BMP280;20110;53.120;5.786;2023-02-15T02:46:29;102805.69;;;4.02
34125;BMP280;20110;53.120;5.786;2023-02-15T02:48:56;102777.78;;;4.09
34125;BMP280;20110;53.120;5.786;2023-02-15T02:51:23;102787.09;;;4.29
34125;BMP280;20110;53.120;5.786;2023-02-15T02:53:56;102767.75;;;4.20
34125;BMP280;20110;53.120;5.786;2023-02-15T02:56:40;102814.22;;;4.43
34125;BMP280;20110;53.120;5.786;2023-02-15T02:59:30;102770.50;;;3.96
34125;BMP280;20110;53.120;5.786;2023-02-15T03:02:28;102820.25;;;4.23
34125;BMP280;20110;53.120;5.786;2023-02-15T03:05:02;102793.16;;;3.90
34125;BMP280;20110;53.120;5.786;2023-02-15T03:07:31;102771.03;;;3.71
34125;BMP280;20110;53.120;5.786;2023-02-15T03:10:00;102790.25;;;3.88
34125;BMP280;20110;53.120;5.786;2023-02-15T03:12:35;102817.59;;;4.07
34125;BMP280;20110;53.120;5.786;2023-02-15T03:15:24;102800.53;;;3.99
34125;BMP280;20110;53.120;5.786;2023-02-15T03:18:00;102786.13;;;3.87
34125;BMP280;20110;53.120;5.786;2023-02-15T03:20:35;102780.50;;;3.85
34125;BMP280;20110;53.120;5.786;2023-02-15T03:23:10;102737.81;;;3.61
34125;BMP280;20110;53.120;5.786;2023-02-15T03:25:42;102809.16;;;4.32
34125;BMP280;20110;53.120;5.786;2023-02-15T03:28:17;102776.38;;;4.36
34125;BMP280;20110;53.120;5.786;2023-02-15T03:30:48;102755.31;;;4.36
34125;BMP280;20110;53.120;5.786;2023-02-15T03:33:19;102644.50;;;3.73
34125;BMP280;20110;53.120;5.786;2023-02-15T03:35:59;102785.66;;;4.57
34125;BMP280;20110;53.120;5.786;2023-02-15T03:38:43;102803.50;;;4.50
34125;BMP280;20110;53.120;5.786;2023-02-15T03:41:13;102794.78;;;4.36
34125;BMP280;20110;53.120;5.786;2023-02-15T03:43:53;102795.34;;;4.28
34125;BMP280;20110;53.120;5.786;2023-02-15T03:46:44;102785.66;;;4.25
34125;BMP280;20110;53.120;5.786;2023-02-15T03:49:25;102739.56;;;4.04
34125;BMP280;20110;53.120;5.786;2023-02-15T03:51:56;102729.75;;;4.04
34125;BMP280;20110;53.120;5.786;2023-02-15T03:54:30;102766.03;;;4.29
34125;BMP280;20110;53.120;5.786;2023-02-15T03:57:37;102777.03;;;4.24
34125;BMP280;20110;53.120;5.786;2023-02-15T04:00:24;102772.59;;;4.21
34125;BMP280;20110;53.120;5.786;2023-02-15T04:05:43;102750.41;;;4.22
34125;BMP280;20110;53.120;5.786;2023-02-15T04:08:10;102760.31;;;4.47
34125;BMP280;20110;53.120;5.786;2023-02-15T04:10:36;102650.56;;;3.70
34125;BMP280;20110;53.120;5.786;2023-02-15T04:13:40;102735.34;;;4.39
34125;BMP280;20110;53.120;5.786;2023-02-15T04:16:06;102644.09;;;3.91
34125;BMP280;20110;53.120;5.786;2023-02-15T04:18:39;102755.16;;;4.89
34125;BMP280;20110;53.120;5.786;2023-02-15T04:21:26;102751.72;;;5.05
34125;BMP280;20110;53.120;5.786;2023-02-15T04:24:12;102721.34;;;4.87
34125;BMP280;20110;53.120;5.786;2023-02-15T04:26:57;102727.59;;;4.93
34125;BMP280;20110;53.120;5.786;2023-02-15T04:29:25;102754.50;;;5.14
34125;BMP280;20110;53.120;5.786;2023-02-15T04:31:53;102751.88;;;5.14
34125;BMP280;20110;53.120;5.786;2023-02-15T04:34:19;102697.94;;;4.77
34125;BMP280;20110;53.120;5.786;2023-02-15T04:36:45;102708.41;;;4.93
34125;BMP280;20110;53.120;5.786;2023-02-15T04:39:15;102753.28;;;5.18
34125;BMP280;20110;53.120;5.786;2023-02-15T04:41:41;102660.56;;;4.40
34125;BMP280;20110;53.120;5.786;2023-02-15T04:44:07;102752.56;;;5.01
34125;BMP280;20110;53.120;5.786;2023-02-15T04:46:33;102640.84;;;4.32
34125;BMP280;20110;53.120;5.786;2023-02-15T04:48:59;102736.31;;;4.90
34125;BMP280;20110;53.120;5.786;2023-02-15T04:51:25;102727.75;;;4.74
34125;BMP280;20110;53.120;5.786;2023-02-15T04:53:51;102696.81;;;4.32
34125;BMP280;20110;53.120;5.786;2023-02-15T04:56:19;102727.13;;;4.37
34125;BMP280;20110;53.120;5.786;2023-02-15T04:58:45;102697.78;;;4.06
34125;BMP280;20110;53.120;5.786;2023-02-15T05:01:11;102680.66;;;4.01
34125;BMP280;20110;53.120;5.786;2023-02-15T05:03:37;102659.47;;;4.09
34125;BMP280;20110;53.120;5.786;2023-02-15T05:06:04;102708.47;;;4.77
34125;BMP280;20110;53.120;5.786;2023-02-15T05:08:30;102686.72;;;4.89
34125;BMP280;20110;53.120;5.786;2023-02-15T05:10:57;102688.88;;;5.07
34125;BMP280;20110;53.120;5.786;2023-02-15T05:13:24;102719.22;;;5.37
34125;BMP280;20110;53.120;5.786;2023-02-15T05:15:51;102701.63;;;5.33
34125;BMP280;20110;53.120;5.786;2023-02-15T05:18:20;102693.53;;;5.41
34125;BMP280;20110;53.120;5.786;2023-02-15T05:20:48;102716.31;;;5.73
34125;BMP280;20110;53.120;5.786;2023-02-15T05:23:14;102710.59;;;5.87
34125;BMP280;20110;53.120;5.786;2023-02-15T05:25:40;102643.91;;;5.39
34125;BMP280;20110;53.120;5.786;2023-02-15T05:28:27;102711.13;;;5.82
34125;BMP280;20110;53.120;5.786;2023-02-15T05:31:26;102710.94;;;5.76
34125;BMP280;20110;53.120;5.786;2023-02-15T05:33:51;102645.56;;;5.46
34125;BMP280;20110;53.120;5.786;2023-02-15T05:36:17;102718.16;;;5.97
34125;BMP280;20110;53.120;5.786;2023-02-15T05:38:43;102715.94;;;6.09
34125;BMP280;20110;53.120;5.786;2023-02-15T05:41:10;102715.16;;;6.21
34125;BMP280;20110;53.120;5.786;2023-02-15T05:43:37;102718.19;;;6.32
34125;BMP280;20110;53.120;5.786;2023-02-15T05:46:04;102681.06;;;6.26
34125;BMP280;20110;53.120;5.786;2023-02-15T05:48:31;102662.81;;;6.19
34125;BMP280;20110;53.120;5.786;2023-02-15T05:51:11;102696.06;;;6.51
34125;BMP280;20110;53.120;5.786;2023-02-15T05:53:41;102706.97;;;6.62
34125;BMP280;20110;53.120;5.786;2023-02-15T05:56:10;102670.34;;;6.43
34125;BMP280;20110;53.120;5.786;2023-02-15T05:58:41;102683.03;;;6.57
34125;BMP280;20110;53.120;5.786;2023-02-15T06:01:18;102703.19;;;6.63
34125;BMP280;20110;53.120;5.786;2023-02-15T06:03:45;102677.88;;;6.53
34125;BMP280;20110;53.120;5.786;2023-02-15T06:06:11;102699.97;;;6.69
34125;BMP280;20110;53.120;5.786;2023-02-15T06:08:39;102673.97;;;6.58
34125;BMP280;20110;53.120;5.786;2023-02-15T06:11:05;102670.88;;;6.59
34125;BMP280;20110;53.120;5.786;2023-02-15T06:13:32;102694.31;;;6.79
34125;BMP280;20110;53.120;5.786;2023-02-15T06:15:58;102693.16;;;6.80
34125;BMP280;20110;53.120;5.786;2023-02-15T06:18:25;102671.34;;;6.67
34125;BMP280;20110;53.120;5.786;2023-02-15T06:20:51;102672.41;;;6.70
34125;BMP280;20110;53.120;5.786;2023-02-15T06:23:17;102646.53;;;6.64
34125;BMP280;20110;53.120;5.786;2023-02-15T06:25:45;102687.06;;;6.92
34125;BMP280;20110;53.120;5.786;2023-02-15T06:28:11;102669.53;;;6.86
34125;BMP280;20110;53.120;5.786;2023-02-15T06:30:37;102646.09;;;6.66
34125;BMP280;20110;53.120;5.786;2023-02-15T06:33:03;102643.94;;;6.74
34125;BMP280;20110;53.120;5.786;2023-02-15T06:35:29;102661.81;;;6.91
34125;BMP280;20110;53.120;5.786;2023-02-15T06:37:55;102666.22;;;6.94
34125;BMP280;20110;53.120;5.786;2023-02-15T06:40:20;102691.97;;;7.03
34125;BMP280;20110;53.120;5.786;2023-02-15T06:42:46;102682.25;;;7.00
34125;BMP280;20110;53.120;5.786;2023-02-15T06:45:12;102691.75;;;6.97
34125;BMP280;20110;53.120;5.786;2023-02-15T06:47:38;102563.69;;;6.09
34125;BMP280;20110;53.120;5.786;2023-02-15T06:50:06;102689.75;;;7.02
34125;BMP280;20110;53.120;5.786;2023-02-15T06:52:32;102672.97;;;6.95
34125;BMP280;20110;53.120;5.786;2023-02-15T06:54:58;102678.28;;;7.05
34125;BMP280;20110;53.120;5.786;2023-02-15T06:57:23;102690.81;;;7.13
34125;BMP280;20110;53.120;5.786;2023-02-15T06:59:49;102700.06;;;7.18
34125;BMP280;20110;53.120;5.786;2023-02-15T07:02:15;102683.75;;;7.10
34125;BMP280;20110;53.120;5.786;2023-02-15T07:04:41;102637.41;;;6.87
34125;BMP280;20110;53.120;5.786;2023-02-15T07:07:11;102658.94;;;7.08
34125;BMP280;20110;53.120;5.786;2023-02-15T07:09:38;102656.03;;;7.15
34125;BMP280;20110;53.120;5.786;2023-02-15T07:12:05;102679.00;;;7.36
34125;BMP280;20110;53.120;5.786;2023-02-15T07:14:49;102686.06;;;7.39
34125;BMP280;20110;53.120;5.786;2023-02-15T07:17:16;102555.44;;;6.51
34125;BMP280;20110;53.120;5.786;2023-02-15T07:19:41;102597.75;;;6.69
34125;BMP280;20110;53.120;5.786;2023-02-15T07:22:07;102693.09;;;7.33
34125;BMP280;20110;53.120;5.786;2023-02-15T07:24:33;102690.84;;;7.31
34125;BMP280;20110;53.120;5.786;2023-02-15T07:26:59;102643.94;;;7.05
34125;BMP280;20110;53.120;5.786;2023-02-15T07:29:25;102657.94;;;7.14
34125;BMP280;20110;53.120;5.786;2023-02-15T07:31:51;102597.66;;;6.82
34125;BMP280;20110;53.120;5.786;2023-02-15T07:34:17;102638.09;;;7.01
34125;BMP280;20110;53.120;5.786;2023-02-15T07:36:43;102677.81;;;7.28
34125;BMP280;20110;53.120;5.786;2023-02-15T07:39:12;102659.97;;;7.10
34125;BMP280;20110;53.120;5.786;2023-02-15T07:41:38;102680.00;;;7.29
34125;BMP280;20110;53.120;5.786;2023-02-15T07:44:04;102658.09;;;7.20
34125;BMP280;20110;53.120;5.786;2023-02-15T07:46:30;102675.50;;;7.39
34125;BMP280;20110;53.120;5.786;2023-02-15T07:48:55;102674.91;;;7.44
34125;BMP280;20110;53.120;5.786;2023-02-15T07:51:21;102679.22;;;7.69
34125;BMP280;20110;53.120;5.786;2023-02-15T07:53:48;102637.34;;;7.58
34125;BMP280;20110;53.120;5.786;2023-02-15T07:56:16;102636.75;;;7.73
34125;BMP280;20110;53.120;5.786;2023-02-15T07:58:42;102668.22;;;7.98
34125;BMP280;20110;53.120;5.786;2023-02-15T08:01:33;102661.44;;;8.15
34125;BMP280;20110;53.120;5.786;2023-02-15T08:04:01;102630.88;;;7.96
34125;BMP280;20110;53.120;5.786;2023-02-15T08:06:32;102656.31;;;8.12
34125;BMP280;20110;53.120;5.786;2023-02-15T08:08:58;102606.66;;;7.79
34125;BMP280;20110;53.120;5.786;2023-02-15T08:11:31;102654.22;;;8.25
34125;BMP280;20110;53.120;5.786;2023-02-15T08:14:13;102649.22;;;8.36
34125;BMP280;20110;53.120;5.786;2023-02-15T08:21:54;102641.22;;;8.54
34125;BMP280;20110;53.120;5.786;2023-02-15T08:24:24;102636.16;;;8.75
34125;BMP280;20110;53.120;5.786;2023-02-15T08:26:51;102581.69;;;8.41
34125;BMP280;20110;53.120;5.786;2023-02-15T08:29:27;102614.09;;;8.69
34125;BMP280;20110;53.120;5.786;2023-02-15T08:31:56;102635.81;;;8.82
34125;BMP280;20110;53.120;5.786;2023-02-15T08:34:24;102594.56;;;8.57
34125;BMP280;20110;53.120;5.786;2023-02-15T08:36:50;102584.28;;;8.59
34125;BMP280;20110;53.120;5.786;2023-02-15T08:39:16;102578.25;;;8.58
34125;BMP280;20110;53.120;5.786;2023-02-15T08:41:45;102615.88;;;8.95
34125;BMP280;20110;53.120;5.786;2023-02-15T08:44:11;102621.44;;;9.07
34125;BMP280;20110;53.120;5.786;2023-02-15T08:46:41;102615.31;;;9.15
34125;BMP280;20110;53.120;5.786;2023-02-15T08:49:11;102586.97;;;9.07
34125;BMP280;20110;53.120;5.786;2023-02-15T08:51:39;102488.09;;;8.53
34125;BMP280;20110;53.120;5.786;2023-02-15T08:54:08;102596.25;;;9.26
34125;BMP280;20110;53.120;5.786;2023-02-15T08:56:40;102586.75;;;9.34
34125;BMP280;20110;53.120;5.786;2023-02-15T08:59:13;102595.06;;;9.51
34125;BMP280;20110;53.120;5.786;2023-02-15T09:01:39;102605.59;;;9.75
34125;BMP280;20110;53.120;5.786;2023-02-15T09:04:07;102588.13;;;9.68
34125;BMP280;20110;53.120;5.786;2023-02-15T09:06:40;102574.94;;;9.74
34125;BMP280;20110;53.120;5.786;2023-02-15T09:09:08;102595.63;;;9.99
34125;BMP280;20110;53.120;5.786;2023-02-15T09:11:43;102569.28;;;9.95
34125;BMP280;20110;53.120;5.786;2023-02-15T09:14:18;102564.78;;;10.16
34125;BMP280;20110;53.120;5.786;2023-02-15T09:16:47;102559.19;;;10.14
34125;BMP280;20110;53.120;5.786;2023-02-15T09:19:16;102581.09;;;10.44
34125;BMP280;20110;53.120;5.786;2023-02-15T09:21:43;102592.75;;;10.67
34125;BMP280;20110;53.120;5.786;2023-02-15T09:24:12;102598.94;;;10.79
34125;BMP280;20110;53.120;5.786;2023-02-15T09:26:48;102601.72;;;11.10
34125;BMP280;20110;53.120;5.786;2023-02-15T09:29:15;102583.50;;;11.23
34125;BMP280;20110;53.120;5.786;2023-02-15T09:31:48;102605.59;;;11.55
34125;BMP280;20110;53.120;5.786;2023-02-15T09:34:18;102602.66;;;11.79
34125;BMP280;20110;53.120;5.786;2023-02-15T09:36:45;102606.06;;;12.11
34125;BMP280;20110;53.120;5.786;2023-02-15T09:39:24;102604.28;;;12.39
34125;BMP280;20110;53.120;5.786;2023-02-15T09:51:17;102614.03;;;13.35
34125;BMP280;20110;53.120;5.786;2023-02-15T09:54:12;102612.13;;;13.52
34125;BMP280;20110;53.120;5.786;2023-02-15T09:57:10;102606.56;;;13.78
34125;BMP280;20110;53.120;5.786;2023-02-15T09:59:49;102605.81;;;13.89
34125;BMP280;20110;53.120;5.786;2023-02-15T10:02:48;102600.91;;;14.15
34125;BMP280;20110;53.120;5.786;2023-02-15T10:05:35;102615.91;;;14.41
34125;BMP280;20110;53.120;5.786;2023-02-15T10:08:35;102614.59;;;14.64
34125;BMP280;20110;53.120;5.786;2023-02-15T10:11:14;102573.22;;;14.65
34125;BMP280;20110;53.120;5.786;2023-02-15T10:17:53;102607.06;;;15.39
34125;BMP280;20110;53.120;5.786;2023-02-15T10:26:49;102493.66;;;14.77
34125;BMP280;20110;53.120;5.786;2023-02-15T10:29:44;102601.59;;;15.50
34125;BMP280;20110;53.120;5.786;2023-02-15T10:32:23;102532.97;;;15.23
34125;BMP280;20110;53.120;5.786;2023-02-15T10:35:29;102576.47;;;15.83
34125;BMP280;20110;53.120;5.786;2023-02-15T10:38:20;102569.75;;;15.95
34125;BMP280;20110;53.120;5.786;2023-02-15T10:46:40;102589.59;;;16.80
34125;BMP280;20110;53.120;5.786;2023-02-15T10:51:56;102545.41;;;17.00
34125;BMP280;20110;53.120;5.786;2023-02-15T11:01:14;102542.19;;;17.02
34125;BMP280;20110;53.120;5.786;2023-02-15T11:04:08;102570.97;;;17.59
34125;BMP280;20110;53.120;5.786;2023-02-15T11:06:44;102480.69;;;17.17
34125;BMP280;20110;53.120;5.786;2023-02-15T11:09:15;102467.25;;;17.30
34125;BMP280;20110;53.120;5.786;2023-02-15T11:11:49;102512.91;;;17.90
34125;BMP280;20110;53.120;5.786;2023-02-15T11:14:31;102563.81;;;18.22
34125;BMP280;20110;53.120;5.786;2023-02-15T11:17:26;102565.44;;;18.38
34125;BMP280;20110;53.120;5.786;2023-02-15T11:20:24;102549.66;;;18.42
34125;BMP280;20110;53.120;5.786;2023-02-15T11:22:52;102539.06;;;18.58
34125;BMP280;20110;53.120;5.786;2023-02-15T11:25:31;102463.84;;;18.10
34125;BMP280;20110;53.120;5.786;2023-02-15T11:28:03;102546.00;;;18.74
34125;BMP280;20110;53.120;5.786;2023-02-15T11:30:47;102488.97;;;18.55
34125;BMP280;20110;53.120;5.786;2023-02-15T11:33:36;102459.28;;;18.68
34125;BMP280;20110;53.120;5.786;2023-02-15T11:36:22;102542.59;;;19.66
34125;BMP280;20110;53.120;5.786;2023-02-15T11:38:59;102441.88;;;19.33
34125;BMP280;20110;53.120;5.786;2023-02-15T11:41:34;102485.31;;;19.96
34125;BMP280;20110;53.120;5.786;2023-02-15T11:44:25;102462.47;;;19.89
34125;BMP280;20110;53.120;5.786;2023-02-15T11:46:52;102463.03;;;19.80
34125;BMP280;20110;53.120;5.786;2023-02-15T11:49:40;102508.91;;;20.18
34125;BMP280;20110;53.120;5.786;2023-02-15T11:52:11;102511.59;;;20.26
34125;BMP280;20110;53.120;5.786;2023-02-15T11:54:42;102507.47;;;20.25
34125;BMP280;20110;53.120;5.786;2023-02-15T11:57:36;102514.31;;;20.10
34125;BMP280;20110;53.120;5.786;2023-02-15T12:00:34;102514.81;;;19.94
34125;BMP280;20110;53.120;5.786;2023-02-15T12:03:14;102498.94;;;19.75
34125;BMP280;20110;53.120;5.786;2023-02-15T12:05:46;102410.66;;;18.94
34125;BMP280;20110;53.120;5.786;2023-02-15T12:08:21;102432.06;;;19.07
34125;BMP280;20110;53.120;5.786;2023-02-15T12:14:01;102477.19;;;19.65
34125;BMP280;20110;53.120;5.786;2023-02-15T12:16:33;102450.34;;;19.52
34125;BMP280;20110;53.120;5.786;2023-02-15T12:19:02;102388.91;;;19.36
34125;BMP280;20110;53.120;5.786;2023-02-15T12:21:34;102446.63;;;19.63
34125;BMP280;20110;53.120;5.786;2023-02-15T12:24:31;102432.75;;;19.51
34125;BMP280;20110;53.120;5.786;2023-02-15T12:27:17;102391.75;;;19.38
34125;BMP280;20110;53.120;5.786;2023-02-15T12:30:38;102433.69;;;19.84
34125;BMP280;20110;53.120;5.786;2023-02-15T12:33:15;102432.09;;;19.81
34125;BMP280;20110;53.120;5.786;2023-02-15T12:35:43;102417.50;;;19.61
34125;BMP280;20110;53.120;5.786;2023-02-15T12:40:40;102356.59;;;19.00
34125;BMP280;20110;53.120;5.786;2023-02-15T12:43:42;102428.59;;;19.35
34125;BMP280;20110;53.120;5.786;2023-02-15T12:46:28;102335.78;;;18.57
34125;BMP280;20110;53.120;5.786;2023-02-15T12:51:52;102404.66;;;18.80
34125;BMP280;20110;53.120;5.786;2023-02-15T12:54:29;102443.13;;;18.96
34125;BMP280;20110;53.120;5.786;2023-02-15T12:56:56;102438.78;;;18.85
34125;BMP280;20110;53.120;5.786;2023-02-15T12:59:23;102340.22;;;18.18
34125;BMP280;20110;53.120;5.786;2023-02-15T13:01:51;102422.03;;;18.51
34125;BMP280;20110;53.120;5.786;2023-02-15T13:04:28;102433.34;;;18.29
34125;BMP280;20110;53.120;5.786;2023-02-15T13:07:02;102418.28;;;18.26
34125;BMP280;20110;53.120;5.786;2023-02-15T13:12:21;102455.50;;;18.42
34125;BMP280;20110;53.120;5.786;2023-02-15T13:14:52;102448.69;;;18.41
34125;BMP280;20110;53.120;5.786;2023-02-15T13:17:40;102448.84;;;18.36
34125;BMP280;20110;53.120;5.786;2023-02-15T13:20:21;102355.66;;;17.76
34125;BMP280;20110;53.120;5.786;2023-02-15T13:23:13;102391.41;;;17.84
34125;BMP280;20110;53.120;5.786;2023-02-15T13:25:47;102420.69;;;17.95
34125;BMP280;20110;53.120;5.786;2023-02-15T13:28:18;102443.19;;;18.05
34125;BMP280;20110;53.120;5.786;2023-02-15T13:30:49;102424.19;;;18.03
34125;BMP280;20110;53.120;5.786;2023-02-15T13:33:43;102431.22;;;18.06
34125;BMP280;20110;53.120;5.786;2023-02-15T13:39:24;102424.59;;;18.28
34125;BMP280;20110;53.120;5.786;2023-02-15T13:42:08;102423.94;;;18.15
34125;BMP280;20110;53.120;5.786;2023-02-15T13:50:35;102415.63;;;17.92
34125;BMP280;20110;53.120;5.786;2023-02-15T13:55:44;102357.94;;;17.38
34125;BMP280;20110;53.120;5.786;2023-02-15T13:58:32;102421.78;;;17.79
34125;BMP280;20110;53.120;5.786;2023-02-15T14:01:24;102388.97;;;17.60
34125;BMP280;20110;53.120;5.786;2023-02-15T14:04:44;102396.94;;;17.65
34125;BMP280;20110;53.120;5.786;2023-02-15T14:07:57;102405.59;;;17.72
34125;BMP280;20110;53.120;5.786;2023-02-15T14:16:27;102386.00;;;17.63
34125;BMP280;20110;53.120;5.786;2023-02-15T14:22:46;102381.97;;;17.57
34125;BMP280;20110;53.120;5.786;2023-02-15T14:25:48;102373.22;;;17.43
34125;BMP280;20110;53.120;5.786;2023-02-15T14:28:45;102377.31;;;17.57
34125;BMP280;20110;53.120;5.786;2023-02-15T14:31:16;102324.13;;;17.22
34125;BMP280;20110;53.120;5.786;2023-02-15T14:33:56;102371.78;;;17.42
34125;BMP280;20110;53.120;5.786;2023-02-15T14:36:25;102318.44;;;17.12
34125;BMP280;20110;53.120;5.786;2023-02-15T14:45:55;102345.47;;;17.27
34125;BMP280;20110;53.120;5.786;2023-02-15T14:48:45;102372.13;;;17.25
34125;BMP280;20110;53.120;5.786;2023-02-15T14:54:52;102325.31;;;16.74
34125;BMP280;20110;53.120;5.786;2023-02-15T14:59:43;102363.31;;;16.78
34125;BMP280;20110;53.120;5.786;2023-02-15T15:02:22;102338.91;;;16.63
34125;BMP280;20110;53.120;5.786;2023-02-15T15:07:43;102330.75;;;16.42
34125;BMP280;20110;53.120;5.786;2023-02-15T15:18:10;102358.50;;;16.31
34125;BMP280;20110;53.120;5.786;2023-02-15T15:20:44;102309.97;;;16.03
34125;BMP280;20110;53.120;5.786;2023-02-15T15:31:46;102346.22;;;16.04
34125;BMP280;20110;53.120;5.786;2023-02-15T15:35:45;102282.41;;;15.57
34125;BMP280;20110;53.120;5.786;2023-02-15T15:38:07;102332.94;;;15.79
34125;BMP280;20110;53.120;5.786;2023-02-15T15:48:33;102322.97;;;15.42
34125;BMP280;20110;53.120;5.786;2023-02-15T15:51:26;102316.97;;;15.18
34125;BMP280;20110;53.120;5.786;2023-02-15T15:53:54;102341.22;;;15.25
34125;BMP280;20110;53.120;5.786;2023-02-15T15:56:31;102325.69;;;14.99
34125;BMP280;20110;53.120;5.786;2023-02-15T15:59:07;102309.31;;;14.84
34125;BMP280;20110;53.120;5.786;2023-02-15T16:01:43;102294.91;;;14.69
34125;BMP280;20110;53.120;5.786;2023-02-15T16:04:33;102314.47;;;14.77
34125;BMP280;20110;53.120;5.786;2023-02-15T16:10:02;102312.59;;;14.72
34125;BMP280;20110;53.120;5.786;2023-02-15T16:12:33;102284.69;;;14.43
34125;BMP280;20110;53.120;5.786;2023-02-15T16:15:22;102286.69;;;14.37
34125;BMP280;20110;53.120;5.786;2023-02-15T16:17:54;102319.59;;;14.50
34125;BMP280;20110;53.120;5.786;2023-02-15T16:20:26;102281.91;;;14.24
34125;BMP280;20110;53.120;5.786;2023-02-15T16:28:18;102282.13;;;13.96
34125;BMP280;20110;53.120;5.786;2023-02-15T16:31:06;102325.25;;;14.11
34125;BMP280;20110;53.120;5.786;2023-02-15T16:33:37;102287.31;;;13.83
34125;BMP280;20110;53.120;5.786;2023-02-15T16:36:05;102320.19;;;14.02
34125;BMP280;20110;53.120;5.786;2023-02-15T16:43:44;102287.59;;;13.68
34125;BMP280;20110;53.120;5.786;2023-02-15T16:46:18;102308.91;;;13.79
34125;BMP280;20110;53.120;5.786;2023-02-15T16:48:48;102278.22;;;13.56
34125;BMP280;20110;53.120;5.786;2023-02-15T16:51:33;102320.88;;;13.67
34125;BMP280;20110;53.120;5.786;2023-02-15T16:54:08;102324.28;;;13.68
34125;BMP280;20110;53.120;5.786;2023-02-15T16:56:44;102313.13;;;13.58
34125;BMP280;20110;53.120;5.786;2023-02-15T16:59:39;102252.00;;;13.08
34125;BMP280;20110;53.120;5.786;2023-02-15T17:02:27;102325.31;;;13.53
34125;BMP280;20110;53.120;5.786;2023-02-15T17:10:35;102341.66;;;13.33
34125;BMP280;20110;53.120;5.786;2023-02-15T17:13:13;102339.50;;;13.21
34125;BMP280;20110;53.120;5.786;2023-02-15T17:15:43;102340.47;;;13.12
34125;BMP280;20110;53.120;5.786;2023-02-15T17:18:20;102328.16;;;12.98